Time;durP1;ratioP1;P1;durP2;ratioP2;P2;SDS_P1;SDS_P2;PMS_P1;PMS_P2;Temp;Humidity;BMP_temperature;BMP_pressure;BME280_temperature;BME280_humidity;BME280_pressure;Samples;Min_cycle;Max_cycle;Signal;HPM_P1;HPM_P2
2022/04/18 00:01:14;;;;;;;4.95;2.17;;;7.80;98.50;;;;;;5014509;28;20022;-78
2022/04/18 00:03:40;;;;;;;4.55;2.42;;;7.70;98.50;;;;;;5012520;28;20096;-78
2022/04/18 00:06:06;;;;;;;5.40;2.72;;;7.70;98.30;;;;;;5014056;28;20113;-78
2022/04/18 00:08:31;;;;;;;3.45;2.30;;;7.60;99.00;;;;;;5012297;28;20047;-77
2022/04/18 00:10:57;;;;;;;6.07;2.60;;;7.50;99.60;;;;;;5011491;28;20131;-79
2022/04/18 00:13:22;;;;;;;3.35;2.08;;;7.40;99.50;;;;;;5011868;28;20470;-78
2022/04/18 00:15:49;;;;;;;6.03;2.45;;;7.30;99.80;;;;;;5012894;28;20037;-77
2022/04/18 00:18:15;;;;;;;5.20;3.10;;;7.20;99.80;;;;;;4992363;28;20111;-79
2022/04/18 00:20:40;;;;;;;5.88;2.58;;;7.10;99.90;;;;;;5013149;28;20112;-77
2022/04/18 00:23:06;;;;;;;3.78;2.55;;;7.10;99.90;;;;;;5018787;28;20038;-77
2022/04/18 00:25:31;;;;;;;4.30;2.67;;;7.10;99.90;;;;;;5012123;28;20044;-77
2022/04/18 00:27:57;;;;;;;5.30;2.92;;;7.10;99.90;;;;;;5012915;28;20116;-76
2022/04/18 00:30:22;;;;;;;5.07;2.22;;;6.90;99.90;;;;;;5028659;28;20029;-77
2022/04/18 00:32:48;;;;;;;4.22;2.25;;;7.00;99.90;;;;;;5011844;28;20041;-78
2022/04/18 00:35:14;;;;;;;3.83;2.40;;;7.10;99.90;;;;;;5013157;28;20120;-78
2022/04/18 00:37:40;;;;;;;4.13;2.15;;;7.20;99.90;;;;;;5011429;28;22110;-77
2022/04/18 00:40:08;;;;;;;4.22;2.38;;;7.30;99.90;;;;;;4994926;28;20666;-77
2022/04/18 00:42:34;;;;;;;3.72;2.42;;;7.30;99.90;;;;;;5028876;28;20104;-77
2022/04/18 00:45:00;;;;;;;4.85;2.33;;;7.30;99.90;;;;;;5011962;28;20036;-78
2022/04/18 00:47:26;;;;;;;6.38;2.67;;;7.10;99.90;;;;;;5016831;28;20108;-78
2022/04/18 00:49:51;;;;;;;5.35;2.78;;;7.20;99.90;;;;;;5010160;28;20563;-77
2022/04/18 00:52:17;;;;;;;5.30;2.88;;;7.20;99.90;;;;;;5007124;28;20505;-78
2022/04/18 00:54:43;;;;;;;3.92;2.10;;;7.10;99.90;;;;;;5011143;28;20033;-79
2022/04/18 00:57:12;;;;;;;4.55;2.28;;;6.90;99.90;;;;;;5012622;28;20045;-78
2022/04/18 00:59:38;;;;;;;6.05;3.13;;;6.90;99.90;;;;;;5012774;28;20036;-79
2022/04/18 01:02:05;;;;;;;5.00;2.85;;;6.90;99.90;;;;;;5011975;28;20033;-78
2022/04/18 01:04:32;;;;;;;5.78;2.85;;;6.90;99.90;;;;;;5013199;28;20029;-78
2022/04/18 01:07:02;;;;;;;5.65;3.00;;;6.80;99.90;;;;;;5011052;28;20095;-78
2022/04/18 01:09:28;;;;;;;4.07;2.08;;;6.80;99.90;;;;;;5012969;28;20072;-77
2022/04/18 01:11:54;;;;;;;4.90;2.65;;;6.80;99.90;;;;;;5027514;28;20116;-77
2022/04/18 01:14:25;;;;;;;6.10;3.33;;;6.90;99.90;;;;;;5013971;28;20045;-77
2022/04/18 01:17:09;;;;;;;5.53;3.40;;;6.80;99.90;;;;;;5028224;28;20048;-77
2022/04/18 01:19:55;;;;;;;6.35;2.72;;;6.60;99.90;;;;;;5016202;28;20504;-77
2022/04/18 01:22:30;;;;;;;5.85;2.97;;;6.40;99.90;;;;;;5017514;28;20059;-77
2022/04/18 01:30:44;;;;;;;6.75;3.70;;;6.60;99.90;;;;;;5017061;28;20395;-78
2022/04/18 01:33:10;;;;;;;4.28;2.63;;;6.40;99.90;;;;;;5000372;28;20028;-77
2022/04/18 01:35:36;;;;;;;5.07;3.00;;;6.30;99.90;;;;;;5014679;28;20091;-77
2022/04/18 01:38:03;;;;;;;4.60;3.00;;;6.30;99.90;;;;;;5015337;28;20021;-77
2022/04/18 01:40:28;;;;;;;6.38;3.15;;;6.20;99.90;;;;;;5021155;28;20429;-78
2022/04/18 01:42:54;;;;;;;6.50;3.63;;;6.30;99.90;;;;;;5014936;28;20080;-77
2022/04/18 01:45:20;;;;;;;5.53;3.17;;;6.20;99.90;;;;;;5013355;28;20030;-79
2022/04/18 01:47:57;;;;;;;5.82;2.92;;;6.20;99.90;;;;;;5007595;28;20029;-78
2022/04/18 01:50:24;;;;;;;6.00;2.90;;;6.10;99.90;;;;;;5014129;28;20045;-77
2022/04/18 01:52:50;;;;;;;7.72;3.78;;;6.00;99.90;;;;;;5015311;28;20053;-78
2022/04/18 01:55:15;;;;;;;7.00;3.88;;;5.90;99.90;;;;;;5012777;28;20609;-78
2022/04/18 01:57:43;;;;;;;7.13;4.38;;;5.90;99.90;;;;;;4997444;28;20505;-78
2022/04/18 02:00:10;;;;;;;6.60;4.20;;;5.80;99.90;;;;;;5028964;28;20022;-77
2022/04/18 02:02:42;;;;;;;8.00;4.55;;;5.70;99.90;;;;;;5014056;28;20124;-77
2022/04/18 02:05:08;;;;;;;9.23;4.40;;;5.70;99.90;;;;;;4991326;28;20037;-77
2022/04/18 02:07:35;;;;;;;7.45;4.97;;;5.60;99.90;;;;;;5018146;28;20029;-77
2022/04/18 02:10:02;;;;;;;5.78;3.88;;;5.50;99.90;;;;;;5011826;28;20030;-77
2022/04/18 02:12:28;;;;;;;5.65;3.78;;;5.50;99.90;;;;;;5014249;28;20145;-77
2022/04/18 02:14:59;;;;;;;;;;;5.50;99.90;;;;;;5029870;28;20053;-77
2022/04/18 02:17:27;;;;;;;6.30;3.42;;;5.40;99.90;;;;;;5029851;28;20017;-77
2022/04/18 02:19:53;;;;;;;5.78;4.15;;;5.30;99.90;;;;;;5026905;28;20044;-77
2022/04/18 02:22:21;;;;;;;7.13;4.30;;;5.20;99.90;;;;;;5018304;28;20025;-77
2022/04/18 02:24:46;;;;;;;8.05;4.18;;;5.20;99.90;;;;;;5010812;28;20397;-77
2022/04/18 02:27:16;;;;;;;5.53;3.78;;;5.20;99.90;;;;;;5018608;28;20033;-77
2022/04/18 02:29:42;;;;;;;6.13;3.90;;;5.20;99.90;;;;;;5010643;28;20029;-78
2022/04/18 02:34:53;;;;;;;6.32;3.65;;;5.00;99.90;;;;;;5027020;28;20038;-78
2022/04/18 02:37:19;;;;;;;7.45;4.85;;;5.00;99.90;;;;;;5028172;28;20049;-77
2022/04/18 02:39:45;;;;;;;8.00;4.90;;;5.00;99.90;;;;;;5028263;28;20021;-77
2022/04/18 02:42:10;;;;;;;7.53;4.60;;;5.00;99.90;;;;;;5002386;28;20041;-77
2022/04/18 02:44:38;;;;;;;8.02;4.43;;;4.90;99.90;;;;;;5017068;28;20037;-78
2022/04/18 02:47:04;;;;;;;7.68;4.97;;;4.80;99.90;;;;;;5027102;28;20441;-77
2022/04/18 02:49:31;;;;;;;7.28;4.50;;;4.80;99.90;;;;;;4994315;28;20026;-78
2022/04/18 02:51:57;;;;;;;6.72;4.75;;;4.80;99.90;;;;;;5011597;28;20587;-77
2022/04/18 02:54:22;;;;;;;8.82;4.25;;;4.70;99.90;;;;;;5017038;28;20025;-78
2022/04/18 02:56:48;;;;;;;7.68;4.80;;;4.70;99.90;;;;;;5016817;28;20521;-77
2022/04/18 02:59:14;;;;;;;7.35;4.47;;;4.70;99.90;;;;;;5000525;28;20052;-77
2022/04/18 03:01:39;;;;;;;7.47;4.35;;;4.60;99.90;;;;;;4994244;28;20057;-78
2022/04/18 03:04:05;;;;;;;5.82;3.92;;;4.60;99.90;;;;;;5027633;28;20108;-78
2022/04/18 03:06:30;;;;;;;9.20;4.72;;;4.50;99.90;;;;;;5026850;28;20041;-78
2022/04/18 03:08:56;;;;;;;6.88;4.25;;;4.40;99.90;;;;;;5016507;28;20026;-78
2022/04/18 03:11:21;;;;;;;7.47;4.35;;;4.40;99.90;;;;;;5026858;28;20037;-78
2022/04/18 03:13:47;;;;;;;8.40;4.55;;;4.40;99.90;;;;;;5027997;28;20041;-78
2022/04/18 03:16:24;;;;;;;6.93;4.05;;;4.30;99.90;;;;;;5027442;28;20877;-77
2022/04/18 03:18:50;;;;;;;7.43;4.47;;;4.30;99.90;;;;;;5011450;28;20708;-78
2022/04/18 03:21:16;;;;;;;6.78;4.45;;;4.20;99.90;;;;;;5012717;28;20038;-79
2022/04/18 03:23:46;;;;;;;6.45;3.90;;;4.10;99.90;;;;;;4994520;28;20028;-77
2022/04/18 03:26:38;;;;;;;6.70;4.22;;;4.10;99.90;;;;;;4981721;28;20503;-77
2022/04/18 03:29:10;;;;;;;8.25;5.00;;;4.10;99.90;;;;;;5027200;28;20076;-77
2022/04/18 03:31:36;;;;;;;7.32;4.88;;;4.10;99.90;;;;;;5026020;28;20441;-77
2022/04/18 03:34:02;;;;;;;6.65;4.63;;;4.00;99.90;;;;;;5027823;28;20064;-77
2022/04/18 03:41:57;;;;;;;5.55;3.20;;;3.90;99.90;;;;;;5025705;28;20025;-77
2022/04/18 03:44:22;;;;;;;5.57;3.70;;;3.90;99.90;;;;;;4989616;28;20021;-76
2022/04/18 03:46:48;;;;;;;6.28;4.07;;;3.80;99.90;;;;;;5021948;28;20022;-77
2022/04/18 03:49:13;;;;;;;7.35;4.43;;;3.80;99.90;;;;;;5010504;28;20038;-77
2022/04/18 03:51:43;;;;;;;6.20;3.43;;;3.70;99.90;;;;;;5026341;28;20030;-77
2022/04/18 03:54:11;;;;;;;7.88;4.13;;;3.80;99.90;;;;;;5000369;28;20071;-78
2022/04/18 03:56:37;;;;;;;6.68;4.43;;;3.70;99.90;;;;;;5009044;28;20052;-78
2022/04/18 03:59:08;;;;;;;7.68;4.95;;;3.60;99.90;;;;;;5011479;28;20209;-77
2022/04/18 04:01:48;;;;;;;6.95;3.97;;;3.60;99.90;;;;;;4991821;28;20489;-78
2022/04/18 04:04:14;;;;;;;9.50;4.30;;;3.60;99.90;;;;;;5005810;28;20041;-78
2022/04/18 04:06:40;;;;;;;5.95;3.92;;;3.70;99.90;;;;;;4999833;28;20681;-77
2022/04/18 04:09:07;;;;;;;7.45;4.60;;;3.60;99.90;;;;;;5026886;28;20232;-78
2022/04/18 04:11:34;;;;;;;6.40;4.28;;;3.60;99.90;;;;;;5015085;28;20039;-77
2022/04/18 04:14:01;;;;;;;6.80;4.20;;;3.50;99.90;;;;;;5009539;28;20029;-78
2022/04/18 04:16:27;;;;;;;8.32;3.95;;;3.50;99.90;;;;;;5025631;28;20049;-77
2022/04/18 04:18:55;;;;;;;6.60;4.47;;;3.50;99.90;;;;;;5000004;28;20038;-77
2022/04/18 04:21:21;;;;;;;6.18;3.65;;;3.40;99.90;;;;;;5001554;28;20105;-77
2022/04/18 04:23:47;;;;;;;7.65;4.25;;;3.40;99.90;;;;;;5027760;28;20422;-78
2022/04/18 04:26:21;;;;;;;8.55;4.40;;;3.50;99.90;;;;;;5010646;28;20417;-77
2022/04/18 04:28:49;;;;;;;7.38;4.85;;;3.30;99.90;;;;;;4993660;28;20022;-77
2022/04/18 04:31:22;;;;;;;6.35;3.33;;;3.20;99.90;;;;;;5021981;28;20121;-77
2022/04/18 04:33:48;;;;;;;5.72;3.80;;;3.30;99.90;;;;;;5026059;28;20402;-77
2022/04/18 04:36:15;;;;;;;7.95;3.47;;;3.40;99.90;;;;;;4988102;28;20037;-77
2022/04/18 04:38:42;;;;;;;4.63;2.72;;;3.40;99.90;;;;;;5014322;28;20037;-76
2022/04/18 04:41:19;;;;;;;5.90;3.58;;;3.40;99.90;;;;;;5021864;28;20022;-77
2022/04/18 04:43:50;;;;;;;5.07;3.47;;;3.30;99.90;;;;;;5026005;28;20080;-77
2022/04/18 04:46:19;;;;;;;7.35;4.20;;;3.40;99.90;;;;;;4999454;28;20030;-75
2022/04/18 04:48:57;;;;;;;5.43;3.25;;;3.30;99.90;;;;;;5009420;28;20116;-77
2022/04/18 04:51:23;;;;;;;5.15;3.20;;;3.30;99.90;;;;;;5008539;28;20029;-77
2022/04/18 04:53:50;;;;;;;7.35;4.55;;;3.30;99.90;;;;;;5025794;28;20025;-77
2022/04/18 04:56:26;;;;;;;6.28;3.92;;;3.20;99.90;;;;;;5007686;28;20053;-77
2022/04/18 04:58:53;;;;;;;7.53;4.18;;;3.30;99.90;;;;;;5026082;28;20068;-77
2022/04/18 05:01:21;;;;;;;7.43;4.30;;;3.30;99.90;;;;;;4993827;28;20497;-77
2022/04/18 05:04:19;;;;;;;4.72;3.33;;;3.30;99.90;;;;;;5006629;28;20045;-77
2022/04/18 05:06:46;;;;;;;6.30;3.28;;;3.30;99.90;;;;;;5025142;28;20029;-77
2022/04/18 05:09:19;;;;;;;4.75;2.60;;;3.30;99.90;;;;;;5026450;28;20030;-77
2022/04/18 05:11:46;;;;;;;5.78;3.80;;;3.30;99.90;;;;;;5008158;28;20056;-78
2022/04/18 05:14:12;;;;;;;6.88;4.55;;;3.30;99.90;;;;;;5006644;28;20040;-77
2022/04/18 05:16:50;;;;;;;6.10;4.15;;;3.30;99.90;;;;;;5007682;28;20109;-77
2022/04/18 05:19:34;;;;;;;8.32;4.55;;;3.30;99.90;;;;;;5010150;28;20584;-77
2022/04/18 05:22:39;;;;;;;8.23;3.90;;;3.40;99.90;;;;;;4998161;28;20065;-77
2022/04/18 05:25:09;;;;;;;6.78;3.95;;;3.40;99.90;;;;;;4993001;28;20057;-77
2022/04/18 05:27:40;;;;;;;9.43;4.18;;;3.40;99.90;;;;;;5025022;28;20505;-77
2022/04/18 05:30:18;;;;;;;5.90;3.92;;;3.40;99.90;;;;;;4993803;28;20112;-77
2022/04/18 05:32:43;;;;;;;5.40;3.72;;;3.40;99.90;;;;;;5008392;28;20068;-77
2022/04/18 05:35:09;;;;;;;7.70;4.47;;;3.60;99.90;;;;;;5020499;28;20490;-77
2022/04/18 05:37:35;;;;;;;5.75;3.45;;;3.70;99.90;;;;;;5007926;28;20033;-77
2022/04/18 05:40:05;;;;;;;5.65;3.60;;;3.70;99.90;;;;;;4989111;28;20359;-78
2022/04/18 05:42:35;;;;;;;5.90;3.13;;;3.70;99.90;;;;;;5025115;28;20040;-77
2022/04/18 05:45:07;;;;;;;5.25;3.10;;;4.00;99.90;;;;;;5007798;28;20577;-77
2022/04/18 05:47:33;;;;;;;5.10;3.08;;;4.10;99.90;;;;;;5008421;28;20033;-77
2022/04/18 05:50:03;;;;;;;4.55;3.22;;;4.20;99.90;;;;;;5020524;28;20630;-77
2022/04/18 05:52:29;;;;;;;6.13;2.67;;;4.20;99.90;;;;;;5024280;28;20033;-77
2022/04/18 05:55:04;;;;;;;5.97;2.40;;;4.40;99.90;;;;;;4998224;28;20046;-77
2022/04/18 05:57:30;;;;;;;7.70;2.75;;;4.60;99.90;;;;;;5008853;28;20057;-77
2022/04/18 05:59:58;;;;;;;6.43;2.15;;;4.60;99.90;;;;;;5016500;28;20074;-77
2022/04/18 06:02:36;;;;;;;4.88;2.58;;;5.00;99.90;;;;;;5017737;28;20041;-76
2022/04/18 06:05:04;;;;;;;5.63;2.95;;;5.10;99.90;;;;;;5000182;28;20036;-77
2022/04/18 06:07:55;;;;;;;5.40;2.70;;;5.30;99.90;;;;;;5017953;28;20513;-77
2022/04/18 06:10:23;;;;;;;5.75;2.47;;;5.50;99.90;;;;;;5012738;28;20030;-77
2022/04/18 06:12:58;;;;;;;5.05;2.17;;;5.50;99.90;;;;;;5029255;28;20034;-77
2022/04/18 06:15:23;;;;;;;5.05;2.00;;;5.60;99.90;;;;;;5029478;28;20429;-77
2022/04/18 06:17:49;;;;;;;6.65;2.10;;;5.90;99.90;;;;;;5022719;28;20113;-77
2022/04/18 06:20:15;;;;;;;4.03;2.28;;;6.10;99.90;;;;;;5015778;28;20022;-78
2022/04/18 06:22:40;;;;;;;2.97;1.40;;;6.30;99.90;;;;;;5001556;28;20038;-78
2022/04/18 06:25:07;;;;;;;4.68;1.92;;;6.50;99.90;;;;;;5023412;28;20060;-77
2022/04/18 06:27:35;;;;;;;3.58;2.10;;;6.80;99.90;;;;;;5026902;28;20026;-77
2022/04/18 06:30:00;;;;;;;5.20;1.85;;;7.10;99.90;;;;;;4976811;28;20037;-78
2022/04/18 06:32:35;;;;;;;3.00;1.50;;;7.40;99.90;;;;;;5027624;28;20330;-78
2022/04/18 06:35:01;;;;;;;6.40;2.10;;;7.70;99.90;;;;;;4993866;28;20239;-77
2022/04/18 06:37:31;;;;;;;3.63;1.40;;;8.10;99.90;;;;;;5012186;28;20524;-77
2022/04/18 06:40:26;;;;;;;2.45;0.90;;;8.30;99.90;;;;;;4995658;28;20025;-77
2022/04/18 06:42:53;;;;;;;2.70;0.90;;;8.80;99.90;;;;;;5010551;28;20408;-77
2022/04/18 06:45:24;;;;;;;2.95;1.00;;;9.10;99.90;;;;;;4994090;28;20022;-77
2022/04/18 06:47:50;;;;;;;2.38;0.70;;;9.40;99.90;;;;;;5012005;28;20339;-78
2022/04/18 06:50:23;;;;;;;2.15;0.75;;;9.60;99.90;;;;;;5023860;28;20026;-78
2022/04/18 06:53:06;;;;;;;2.35;0.80;;;9.80;99.90;;;;;;5010876;28;20044;-78
2022/04/18 06:58:53;;;;;;;2.80;0.98;;;10.30;99.90;;;;;;5013116;28;20457;-77
2022/04/18 07:01:19;;;;;;;2.45;1.00;;;10.50;99.90;;;;;;5023532;28;20026;-79
2022/04/18 07:03:45;;;;;;;3.13;0.80;;;10.70;99.90;;;;;;5011192;28;20080;-77
2022/04/18 07:06:11;;;;;;;2.13;0.88;;;10.90;99.90;;;;;;4993815;28;20041;-79
2022/04/18 07:08:38;;;;;;;3.00;1.00;;;11.00;99.90;;;;;;5010589;28;20030;-77
2022/04/18 07:11:24;;;;;;;2.92;1.10;;;11.20;99.90;;;;;;5009925;28;20112;-77
2022/04/18 07:13:49;;;;;;;3.22;1.27;;;11.40;99.90;;;;;;5000242;28;20120;-78
2022/04/18 07:16:15;;;;;;;3.25;1.05;;;11.50;99.90;;;;;;4992954;28;20130;-78
2022/04/18 07:18:41;;;;;;;2.55;0.93;;;11.70;99.90;;;;;;5015822;28;20029;-77
2022/04/18 07:21:12;;;;;;;2.80;1.15;;;11.80;99.90;;;;;;5026443;28;20076;-77
2022/04/18 07:23:40;;;;;;;2.22;1.08;;;11.90;99.90;;;;;;5010354;28;20087;-78
2022/04/18 07:26:06;;;;;;;2.47;0.88;;;12.00;99.90;;;;;;5008802;28;20041;-79
2022/04/18 07:28:38;;;;;;;1.60;0.70;;;12.20;99.90;;;;;;4993575;28;20042;-77
2022/04/18 07:31:06;;;;;;;1.98;0.70;;;12.30;99.90;;;;;;5008835;28;20030;-78
2022/04/18 07:33:33;;;;;;;2.42;0.80;;;12.50;99.90;;;;;;4993486;28;20025;-78
2022/04/18 07:36:00;;;;;;;1.98;0.77;;;12.60;99.90;;;;;;5025788;28;20060;-78
2022/04/18 07:41:11;;;;;;;1.90;0.70;;;12.60;99.90;;;;;;4991553;28;20021;-77
2022/04/18 07:43:42;;;;;;;2.17;0.85;;;13.00;99.90;;;;;;5010062;28;20467;-78
2022/04/18 07:46:10;;;;;;;1.98;0.60;;;13.30;99.90;;;;;;5026020;28;20115;-79
2022/04/18 07:48:37;;;;;;;1.80;0.60;;;13.40;99.90;;;;;;5007398;28;20038;-78
2022/04/18 07:53:47;;;;;;;2.58;0.57;;;13.70;99.90;;;;;;5018820;28;20390;-79
2022/04/18 07:56:13;;;;;;;1.90;0.70;;;13.80;99.90;;;;;;5022694;28;20041;-80
2022/04/18 07:58:39;;;;;;;1.17;0.50;;;13.90;99.90;;;;;;5008709;28;20055;-79
2022/04/18 08:01:11;;;;;;;2.67;0.50;;;14.00;99.90;;;;;;5012942;28;20037;-78
2022/04/18 08:03:37;;;;;;;2.20;0.50;;;14.20;99.90;;;;;;4986447;28;20406;-78
2022/04/18 08:06:05;;;;;;;1.98;0.47;;;14.40;99.90;;;;;;5018179;28;20080;-77
2022/04/18 08:08:58;;;;;;;1.52;0.55;;;14.70;99.90;;;;;;5013132;28;20034;-78
2022/04/18 08:11:24;;;;;;;0.98;0.35;;;14.80;99.90;;;;;;5007939;28;20426;-80
2022/04/18 08:13:51;;;;;;;1.30;0.50;;;14.70;99.90;;;;;;4990701;28;20029;-77
2022/04/18 08:16:43;;;;;;;2.95;0.50;;;14.80;99.90;;;;;;5001257;28;20060;-78
2022/04/18 08:19:28;;;;;;;1.42;0.60;;;15.10;99.90;;;;;;4990699;28;20067;-77
2022/04/18 08:21:55;;;;;;;2.40;0.75;;;15.10;99.90;;;;;;5009484;28;20029;-78
2022/04/18 08:24:21;;;;;;;1.67;0.40;;;15.10;99.90;;;;;;5008541;28;20060;-78
2022/04/18 08:27:07;;;;;;;0.90;0.30;;;15.10;99.90;;;;;;4999607;28;20041;-79
2022/04/18 08:29:41;;;;;;;1.45;0.30;;;15.60;99.90;;;;;;5015289;28;20083;-79
2022/04/18 08:32:41;;;;;;;1.25;0.47;;;15.80;99.90;;;;;;5008762;28;20029;-79
2022/04/18 08:35:08;;;;;;;1.30;0.45;;;15.80;99.90;;;;;;5008840;28;20446;-79
2022/04/18 08:37:37;;;;;;;1.30;0.50;;;15.90;99.90;;;;;;5011825;28;20037;-79
2022/04/18 08:40:22;;;;;;;1.38;0.55;;;15.70;99.90;;;;;;5009163;28;20402;-79
2022/04/18 08:42:55;;;;;;;1.58;0.50;;;16.00;99.90;;;;;;5010967;28;20159;-82
2022/04/18 08:45:24;;;;;;;1.30;0.43;;;16.20;99.90;;;;;;5009448;28;20783;-79
2022/04/18 08:53:28;;;;;;;2.55;0.40;;;16.40;99.90;;;;;;5007817;28;20033;-78
2022/04/18 08:55:55;;;;;;;1.75;0.43;;;16.20;99.90;;;;;;5022423;28;20068;-79
2022/04/18 08:58:31;;;;;;;1.58;0.50;;;16.00;99.90;;;;;;5022566;28;20037;-78
2022/04/18 09:00:59;;;;;;;1.75;0.43;;;15.90;99.90;;;;;;5009964;28;20029;-80
2022/04/18 09:03:44;;;;;;;1.52;0.40;;;16.10;99.90;;;;;;5008246;28;20098;-78
2022/04/18 09:06:11;;;;;;;0.80;0.30;;;16.20;99.90;;;;;;5012478;28;20033;-79
2022/04/18 09:08:58;;;;;;;2.00;0.40;;;16.70;99.90;;;;;;4989244;28;20021;-79
2022/04/18 09:11:32;;;;;;;1.23;0.40;;;17.20;99.90;;;;;;4991010;28;20049;-79
2022/04/18 09:14:12;;;;;;;1.55;0.45;;;17.20;99.90;;;;;;4984390;28;20403;-79
2022/04/18 09:16:40;;;;;;;1.70;0.55;;;17.50;99.90;;;;;;5007096;28;20052;-79
2022/04/18 09:19:14;;;;;;;1.40;0.50;;;17.20;98.80;;;;;;5005624;28;20757;-79
2022/04/18 09:21:42;;;;;;;1.70;0.40;;;17.20;99.20;;;;;;4991904;28;20029;-81
2022/04/18 09:24:24;;;;;;;1.48;0.50;;;17.30;98.70;;;;;;5016580;28;20415;-79
2022/04/18 09:27:23;;;;;;;1.10;0.50;;;17.50;99.90;;;;;;5006708;28;20036;-80
2022/04/18 09:30:10;;;;;;;1.27;0.40;;;17.80;98.80;;;;;;5023113;28;20156;-79
2022/04/18 09:33:04;;;;;;;1.33;0.60;;;17.70;99.90;;;;;;5022857;28;20097;-79
2022/04/18 09:35:43;;;;;;;1.30;0.30;;;17.50;99.90;;;;;;4996938;28;20026;-78
2022/04/18 09:38:09;;;;;;;2.22;0.38;;;17.80;99.90;;;;;;5000763;28;20046;-79
2022/04/18 09:40:53;;;;;;;1.00;0.30;;;18.10;99.10;;;;;;5012326;28;20253;-80
2022/04/18 09:43:24;;;;;;;1.20;0.40;;;18.40;99.10;;;;;;5022598;28;20666;-76
2022/04/18 09:45:52;;;;;;;2.05;0.55;;;18.50;98.30;;;;;;4995050;28;20057;-77
2022/04/18 09:48:21;;;;;;;1.15;0.45;;;18.70;96.40;;;;;;5029396;28;20034;-76
2022/04/18 09:51:00;;;;;;;1.15;0.40;;;18.70;97.70;;;;;;4979280;28;20021;-76
2022/04/18 09:53:45;;;;;;;1.23;0.45;;;18.60;97.30;;;;;;5012907;28;20060;-76
2022/04/18 09:56:15;;;;;;;1.30;0.40;;;18.70;98.40;;;;;;5010319;28;20493;-78
2022/04/18 09:58:42;;;;;;;1.10;0.40;;;18.90;97.40;;;;;;5011563;28;20037;-76
2022/04/18 10:01:08;;;;;;;3.60;0.50;;;18.70;97.30;;;;;;5017415;28;20532;-79
2022/04/18 10:03:34;;;;;;;2.25;0.47;;;18.50;97.50;;;;;;5012138;28;20054;-83
2022/04/18 10:06:01;;;;;;;1.70;0.47;;;18.60;97.20;;;;;;5027056;28;20530;-82
2022/04/18 10:08:28;;;;;;;1.55;0.57;;;18.60;97.50;;;;;;5011536;28;20482;-77
2022/04/18 10:10:58;;;;;;;1.63;0.50;;;18.80;97.20;;;;;;4990005;28;20493;-80
2022/04/18 10:13:25;;;;;;;1.40;0.43;;;18.90;98.50;;;;;;5009742;28;20037;-77
2022/04/18 10:15:51;;;;;;;0.95;0.30;;;18.80;97.50;;;;;;5010080;28;20091;-79
2022/04/18 10:18:18;;;;;;;1.00;0.40;;;19.30;97.30;;;;;;5009524;28;20041;-79
2022/04/18 10:20:50;;;;;;;1.23;0.40;;;19.40;97.80;;;;;;5025310;28;20026;-82
2022/04/18 10:23:41;;;;;;;2.45;0.40;;;19.40;98.00;;;;;;5014700;28;20733;-83
2022/04/18 10:26:25;;;;;;;0.70;0.30;;;19.10;95.00;;;;;;5010216;28;20486;-82
2022/04/18 10:28:53;;;;;;;1.65;0.40;;;19.50;96.30;;;;;;5010621;28;20048;-80
2022/04/18 10:31:32;;;;;;;1.08;0.30;;;19.40;95.20;;;;;;5010790;28;20814;-82
2022/04/18 10:33:59;;;;;;;0.90;0.30;;;19.60;96.40;;;;;;5009953;28;20026;-83
2022/04/18 10:36:27;;;;;;;1.33;0.35;;;19.40;96.00;;;;;;5012786;28;20079;-79
2022/04/18 10:38:55;;;;;;;1.55;0.32;;;19.30;94.80;;;;;;5011394;28;20026;-81
2022/04/18 10:41:41;;;;;;;1.35;0.45;;;19.40;94.90;;;;;;5010013;28;20481;-79
2022/04/18 10:44:08;;;;;;;0.70;0.30;;;19.40;94.60;;;;;;5009209;28;20037;-81
2022/04/18 10:46:41;;;;;;;0.50;0.30;;;19.60;94.30;;;;;;5010926;28;20034;-79
2022/04/18 10:49:16;;;;;;;0.70;0.30;;;19.90;95.50;;;;;;5010998;28;20045;-80
2022/04/18 10:51:44;;;;;;;0.70;0.30;;;20.10;94.60;;;;;;5009168;28;20037;-78
2022/04/18 10:54:21;;;;;;;1.17;0.30;;;20.30;94.20;;;;;;5007303;28;20022;-80
2022/04/18 10:56:52;;;;;;;2.03;0.20;;;20.60;94.40;;;;;;4992530;28;20061;-80
2022/04/18 10:59:24;;;;;;;1.48;0.30;;;20.50;92.60;;;;;;5008368;28;20612;-78
2022/04/18 11:01:51;;;;;;;0.95;0.30;;;20.50;93.50;;;;;;5025686;28;20053;-80
2022/04/18 11:04:17;;;;;;;1.55;0.40;;;20.80;92.80;;;;;;5008844;28;20049;-82
2022/04/18 11:06:45;;;;;;;1.13;0.40;;;20.20;92.70;;;;;;5012790;28;20034;-79
2022/04/18 11:09:19;;;;;;;1.00;0.30;;;19.90;93.10;;;;;;5009946;28;20124;-78
2022/04/18 11:11:53;;;;;;;1.00;0.40;;;20.20;91.90;;;;;;5011418;28;20026;-80
2022/04/18 11:14:22;;;;;;;0.85;0.30;;;19.70;91.90;;;;;;5010422;28;20435;-79
2022/04/18 11:16:56;;;;;;;0.80;0.30;;;19.90;90.90;;;;;;5010978;28;20035;-77
2022/04/18 11:19:25;;;;;;;0.60;0.20;;;19.90;92.80;;;;;;5009406;28;20034;-79
2022/04/18 11:21:57;;;;;;;0.73;0.30;;;20.20;91.20;;;;;;5010519;28;20036;-81
2022/04/18 11:24:42;;;;;;;0.98;0.30;;;20.30;92.40;;;;;;5010584;28;20037;-78
2022/04/18 11:27:14;;;;;;;0.70;0.20;;;20.30;89.30;;;;;;5010932;28;20510;-80
2022/04/18 11:29:42;;;;;;;0.75;0.30;;;20.40;90.80;;;;;;5011509;28;20513;-79
2022/04/18 11:32:09;;;;;;;0.70;0.20;;;20.40;90.70;;;;;;5010438;28;20224;-80
2022/04/18 11:34:36;;;;;;;0.70;0.20;;;20.50;90.70;;;;;;4993353;28;20045;-78
2022/04/18 11:37:04;;;;;;;0.73;0.20;;;20.00;91.10;;;;;;5010524;28;20065;-79
2022/04/18 11:39:44;;;;;;;0.85;0.30;;;20.10;91.50;;;;;;5010940;28;20127;-78
2022/04/18 11:42:13;;;;;;;1.80;0.20;;;20.90;90.50;;;;;;5009417;28;20124;-78
2022/04/18 11:44:40;;;;;;;1.33;0.30;;;21.00;90.90;;;;;;5025201;28;20037;-79
2022/04/18 11:47:14;;;;;;;0.40;0.20;;;20.60;90.60;;;;;;5007936;28;20140;-81
2022/04/18 11:49:40;;;;;;;0.80;0.30;;;20.60;91.80;;;;;;5010633;28;20025;-79
2022/04/18 11:52:15;;;;;;;0.80;0.30;;;20.50;88.70;;;;;;5001600;28;20037;-80
2022/04/18 11:55:03;;;;;;;0.77;0.20;;;20.10;90.30;;;;;;4990012;28;20038;-80
2022/04/18 11:57:31;;;;;;;0.38;0.17;;;20.70;90.60;;;;;;5008125;28;20509;-78
2022/04/18 11:59:59;;;;;;;1.27;0.30;;;21.40;90.50;;;;;;5010457;28;22839;-79
2022/04/18 12:08:05;;;;;;;1.63;0.30;;;20.50;90.10;;;;;;5007531;28;20136;-79
2022/04/18 12:10:33;;;;;;;1.00;0.30;;;20.20;90.60;;;;;;4991774;28;20041;-80
2022/04/18 12:13:03;;;;;;;1.10;0.30;;;20.70;91.80;;;;;;5006367;28;20033;-78
2022/04/18 12:15:28;;;;;;;0.85;0.30;;;20.50;90.70;;;;;;5008313;28;20041;-79
2022/04/18 12:17:55;;;;;;;0.80;0.30;;;20.70;91.20;;;;;;4984951;28;20041;-79
2022/04/18 12:20:29;;;;;;;1.30;0.20;;;21.10;90.10;;;;;;4985854;28;20030;-83
2022/04/18 12:23:01;;;;;;;1.67;0.30;;;21.20;88.70;;;;;;5007416;28;20482;-80
2022/04/18 12:25:29;;;;;;;0.60;0.20;;;20.60;88.10;;;;;;5008254;28;20628;-79
2022/04/18 12:27:57;;;;;;;1.75;0.30;;;20.40;91.00;;;;;;4991336;28;20114;-79
2022/04/18 12:30:23;;;;;;;0.82;0.20;;;20.30;90.10;;;;;;5012965;28;20029;-79
2022/04/18 12:32:49;;;;;;;0.85;0.20;;;20.90;88.50;;;;;;5008652;28;20033;-80
2022/04/18 12:35:37;;;;;;;1.30;0.30;;;20.90;89.70;;;;;;5008707;28;20029;-79
2022/04/18 12:38:08;;;;;;;0.77;0.20;;;20.70;89.50;;;;;;5003121;28;20494;-79
2022/04/18 12:40:44;;;;;;;0.75;0.30;;;21.20;90.90;;;;;;5020673;28;20534;-80
2022/04/18 12:43:15;;;;;;;0.82;0.40;;;21.40;85.60;;;;;;4991497;28;20030;-79
2022/04/18 12:45:51;;;;;;;1.50;0.30;;;20.60;90.50;;;;;;5024731;28;20034;-79
2022/04/18 12:48:28;;;;;;;0.90;0.30;;;20.80;90.40;;;;;;5003809;28;20765;-79
2022/04/18 12:50:55;;;;;;;1.33;0.40;;;20.90;89.10;;;;;;4988230;28;20045;-79
2022/04/18 12:53:22;;;;;;;1.15;0.30;;;20.60;87.30;;;;;;5023974;28;20036;-80
2022/04/18 12:56:08;;;;;;;0.57;0.25;;;20.60;88.90;;;;;;5013509;28;20084;-78
2022/04/18 12:58:41;;;;;;;0.68;0.20;;;20.80;85.00;;;;;;5008678;28;20046;-79
2022/04/18 13:01:08;;;;;;;0.80;0.25;;;20.70;90.20;;;;;;5010256;28;20056;-80
2022/04/18 13:03:44;;;;;;;0.65;0.28;;;21.00;88.60;;;;;;5007471;28;20078;-79
2022/04/18 13:06:10;;;;;;;1.00;0.30;;;21.00;87.10;;;;;;5007608;28;20041;-80
2022/04/18 13:08:38;;;;;;;1.00;0.30;;;20.50;90.70;;;;;;5008008;28;20037;-82
2022/04/18 13:11:05;;;;;;;0.85;0.30;;;20.70;88.50;;;;;;5024110;28;20049;-79
2022/04/18 13:13:30;;;;;;;0.60;0.20;;;20.20;89.20;;;;;;5007893;28;20272;-80
2022/04/18 13:15:56;;;;;;;0.70;0.30;;;20.60;90.00;;;;;;4996109;28;20377;-80
2022/04/18 13:18:25;;;;;;;0.40;0.20;;;20.70;90.50;;;;;;5007321;28;20471;-79
2022/04/18 13:20:51;;;;;;;1.77;0.40;;;21.00;91.30;;;;;;4988578;28;20029;-80
2022/04/18 13:23:17;;;;;;;1.10;0.43;;;20.70;85.10;;;;;;5013406;28;20034;-80
2022/04/18 13:25:45;;;;;;;1.50;0.30;;;20.30;87.90;;;;;;5007080;28;20037;-80
2022/04/18 13:28:11;;;;;;;0.85;0.30;;;20.70;88.20;;;;;;5006638;28;20096;-78
2022/04/18 13:30:38;;;;;;;1.35;0.30;;;20.30;88.30;;;;;;5007112;28;20041;-80
2022/04/18 13:33:06;;;;;;;1.13;0.30;;;20.40;84.60;;;;;;5006565;28;20389;-82
2022/04/18 13:38:23;;;;;;;0.75;0.30;;;20.90;88.60;;;;;;5023621;28;20033;-80
2022/04/18 13:40:49;;;;;;;1.80;0.30;;;21.10;87.20;;;;;;5007689;28;20532;-79
2022/04/18 13:43:14;;;;;;;0.60;0.20;;;21.20;87.70;;;;;;4995314;28;20038;-80
2022/04/18 13:45:41;;;;;;;1.02;0.30;;;21.00;86.50;;;;;;4990718;28;20029;-79